Time;durP1;ratioP1;P1;durP2;ratioP2;P2;SDS_P1;SDS_P2;PMS_P1;PMS_P2;Temp;Humidity;BMP_temperature;BMP_pressure;BME280_temperature;BME280_humidity;BME280_pressure;Samples;Min_cycle;Max_cycle;Signal;HPM_P1;HPM_P2
2021/09/23 00:01:37;;;;;;;9.45;4.88;;;12.10;99.90;;;;;;4951550;28;20055;-82
2021/09/23 00:04:17;;;;;;;10.85;6.07;;;12.10;99.90;;;;;;4964613;28;20055;-81
2021/09/23 00:06:44;;;;;;;9.80;5.07;;;12.20;99.90;;;;;;4947972;28;20672;-82
2021/09/23 00:09:11;;;;;;;14.20;5.47;;;12.10;99.90;;;;;;4949484;28;20047;-82
2021/09/23 00:11:38;;;;;;;13.15;5.03;;;12.20;99.90;;;;;;4951388;28;20078;-82
2021/09/23 00:14:05;;;;;;;10.20;4.80;;;12.20;99.90;;;;;;4951972;28;20060;-81
2021/09/23 00:16:32;;;;;;;14.30;5.05;;;12.20;99.90;;;;;;4961172;28;20086;-82
2021/09/23 00:19:00;;;;;;;11.05;4.95;;;12.20;99.90;;;;;;4961839;28;20781;-81
2021/09/23 00:21:27;;;;;;;7.90;4.43;;;12.20;99.90;;;;;;4962509;28;20054;-82
2021/09/23 00:23:54;;;;;;;11.23;5.20;;;12.20;99.90;;;;;;4952362;28;20043;-82
2021/09/23 00:26:21;;;;;;;11.30;4.78;;;12.20;99.90;;;;;;4967731;28;20047;-82
2021/09/23 00:28:49;;;;;;;11.40;4.93;;;12.20;99.90;;;;;;4966890;28;20126;-81
2021/09/23 00:31:16;;;;;;;18.23;7.28;;;12.20;99.90;;;;;;4963833;28;20051;-82
2021/09/23 00:33:43;;;;;;;13.05;5.60;;;12.20;99.90;;;;;;4971993;28;20043;-82
2021/09/23 00:36:10;;;;;;;17.58;6.10;;;12.20;99.90;;;;;;4950731;28;20547;-82
2021/09/23 00:38:37;;;;;;;10.18;6.72;;;12.30;99.90;;;;;;4973275;28;20062;-82
2021/09/23 00:41:05;;;;;;;21.30;7.10;;;12.30;99.90;;;;;;4948915;28;20067;-81
2021/09/23 00:43:32;;;;;;;13.23;7.05;;;12.30;99.90;;;;;;4949874;28;20164;-82
2021/09/23 00:45:59;;;;;;;17.90;7.97;;;12.40;99.90;;;;;;4949907;28;20055;-82
2021/09/23 00:48:26;;;;;;;15.80;6.18;;;12.40;99.90;;;;;;4950938;28;20145;-82
2021/09/23 00:50:56;;;;;;;18.73;6.32;;;12.40;99.90;;;;;;4934944;28;20544;-81
2021/09/23 00:53:23;;;;;;;30.23;7.38;;;12.50;99.90;;;;;;4964736;28;20059;-81
2021/09/23 00:55:50;;;;;;;22.08;8.73;;;12.50;99.90;;;;;;4954281;28;20047;-81
2021/09/23 00:58:22;;;;;;;20.23;6.88;;;12.50;99.90;;;;;;4949337;28;20146;-83
2021/09/23 01:00:52;;;;;;;17.70;6.83;;;12.50;99.90;;;;;;4950999;28;20089;-82
2021/09/23 01:03:20;;;;;;;20.48;6.05;;;12.50;99.90;;;;;;4966797;28;20293;-82
2021/09/23 01:05:53;;;;;;;14.65;7.90;;;12.50;99.90;;;;;;4966028;28;20043;-81
2021/09/23 01:08:21;;;;;;;21.23;7.32;;;12.50;99.90;;;;;;4948726;28;20184;-82
2021/09/23 01:10:51;;;;;;;20.25;7.47;;;12.50;99.90;;;;;;4573021;28;10001196;-83
2021/09/23 01:13:22;;;;;;;24.35;6.88;;;12.60;99.90;;;;;;676160;28;10001991;-83
2021/09/23 01:16:16;;;;;;;26.15;7.47;;;12.60;99.90;;;;;;4931515;28;20051;-82
2021/09/23 01:19:03;;;;;;;20.70;7.90;;;12.60;99.90;;;;;;4943576;28;20080;-82
2021/09/23 01:21:33;;;;;;;20.45;7.53;;;12.60;99.90;;;;;;4945878;28;20042;-82
2021/09/23 01:24:00;;;;;;;17.05;6.35;;;12.70;99.90;;;;;;4943763;28;22289;-82
2021/09/23 01:26:31;;;;;;;16.73;7.10;;;12.70;99.90;;;;;;4944356;28;20122;-82
2021/09/23 01:29:19;;;;;;;21.83;6.35;;;12.70;99.90;;;;;;4932783;28;20061;-80
2021/09/23 01:31:53;;;;;;;19.27;7.95;;;12.70;99.90;;;;;;4928710;28;20055;-82
2021/09/23 01:34:21;;;;;;;17.20;7.47;;;12.70;99.90;;;;;;4943574;28;20123;-81
2021/09/23 01:36:48;;;;;;;35.35;9.73;;;12.70;99.90;;;;;;4929053;28;20047;-82
2021/09/23 01:39:20;;;;;;;25.92;8.75;;;12.70;99.90;;;;;;4933704;28;20055;-83
2021/09/23 01:41:49;;;;;;;23.60;9.73;;;12.70;99.90;;;;;;4953720;28;20047;-82
2021/09/23 01:44:23;;;;;;;24.77;9.13;;;12.80;99.90;;;;;;4964924;28;20071;-82
2021/09/23 01:46:51;;;;;;;21.05;9.88;;;12.70;99.90;;;;;;4947369;28;20499;-82
2021/09/23 01:49:24;;;;;;;17.55;8.23;;;12.80;99.90;;;;;;4967132;28;20047;-82
2021/09/23 01:51:52;;;;;;;21.92;7.57;;;12.80;99.90;;;;;;4950462;28;20051;-82
2021/09/23 01:54:21;;;;;;;28.42;8.90;;;12.70;99.90;;;;;;4951201;28;20047;-82
2021/09/23 01:56:53;;;;;;;16.13;7.82;;;12.80;99.90;;;;;;4947230;29;20130;-82
2021/09/23 01:59:23;;;;;;;17.98;8.23;;;12.80;99.90;;;;;;4950134;28;20457;-82
2021/09/23 02:01:52;;;;;;;28.08;8.93;;;12.80;99.90;;;;;;4962920;28;20615;-82
2021/09/23 02:04:20;;;;;;;22.23;7.70;;;12.80;99.90;;;;;;4896402;29;20052;-83
2021/09/23 02:06:48;;;;;;;18.80;7.07;;;12.90;99.90;;;;;;4912120;29;20044;-82
2021/09/23 02:09:15;;;;;;;25.48;8.88;;;12.90;99.90;;;;;;4928752;29;20068;-83
2021/09/23 02:11:44;;;;;;;23.00;8.23;;;12.90;99.90;;;;;;4911840;29;20100;-81
2021/09/23 02:14:12;;;;;;;18.10;9.75;;;12.90;99.90;;;;;;4912742;29;20099;-82
2021/09/23 02:16:40;;;;;;;16.15;7.68;;;12.90;99.90;;;;;;4911157;29;20048;-82
2021/09/23 02:19:30;;;;;;;28.75;8.50;;;13.00;99.90;;;;;;4910596;29;20052;-82
2021/09/23 02:21:57;;;;;;;17.42;8.27;;;13.00;99.90;;;;;;4927472;29;20043;-81
2021/09/23 02:24:25;;;;;;;31.23;8.23;;;13.00;99.90;;;;;;4927480;29;20059;-82
2021/09/23 02:26:52;;;;;;;23.60;8.52;;;13.00;99.90;;;;;;4923839;29;20040;-82
2021/09/23 02:29:19;;;;;;;23.17;8.25;;;13.10;99.90;;;;;;4925276;29;20051;-82
2021/09/23 02:31:46;;;;;;;24.40;9.82;;;13.10;99.90;;;;;;4899324;29;20054;-83
2021/09/23 02:34:13;;;;;;;23.73;9.23;;;13.10;99.90;;;;;;4911830;29;20056;-82
2021/09/23 02:36:40;;;;;;;27.83;9.05;;;13.10;99.90;;;;;;4910457;29;20057;-82
2021/09/23 02:39:07;;;;;;;28.88;8.50;;;13.10;99.90;;;;;;4911970;29;20130;-83
2021/09/23 02:41:34;;;;;;;20.45;7.63;;;13.10;99.90;;;;;;4930704;29;20056;-83
2021/09/23 02:44:01;;;;;;;20.98;9.25;;;13.10;99.90;;;;;;4914259;29;20604;-82
2021/09/23 02:46:28;;;;;;;18.50;8.00;;;13.10;99.90;;;;;;4913948;29;20039;-82
2021/09/23 02:48:55;;;;;;;28.63;9.05;;;13.20;99.90;;;;;;4929857;29;20135;-82
2021/09/23 02:51:22;;;;;;;21.65;8.18;;;13.20;99.90;;;;;;4913977;29;20045;-82
2021/09/23 02:53:49;;;;;;;21.83;9.30;;;13.10;99.90;;;;;;4915593;29;20044;-82
2021/09/23 02:56:17;;;;;;;21.30;8.18;;;13.10;99.90;;;;;;4905164;29;20448;-80
2021/09/23 02:58:47;;;;;;;16.58;7.82;;;13.20;99.90;;;;;;4910675;29;20660;-79
2021/09/23 03:01:16;;;;;;;15.47;7.47;;;13.10;99.90;;;;;;4909918;29;20069;-79
2021/09/23 03:03:45;;;;;;;20.63;8.10;;;13.10;99.90;;;;;;4940525;28;20284;-79
2021/09/23 03:06:15;;;;;;;13.95;7.07;;;13.10;99.90;;;;;;4959783;28;20297;-79
2021/09/23 03:08:43;;;;;;;22.85;8.02;;;13.10;99.90;;;;;;4948951;28;20123;-79
2021/09/23 03:11:10;;;;;;;27.85;8.48;;;13.00;99.90;;;;;;4961712;28;20098;-79
2021/09/23 03:13:37;;;;;;;16.92;7.80;;;13.00;99.90;;;;;;4964658;28;20595;-80
2021/09/23 03:16:06;;;;;;;23.33;10.85;;;13.00;99.90;;;;;;4949030;28;20134;-79
2021/09/23 03:18:33;;;;;;;21.00;8.18;;;13.00;99.90;;;;;;4945654;28;20058;-79
2021/09/23 03:21:00;;;;;;;17.33;7.72;;;12.90;99.90;;;;;;4946728;28;20102;-79
2021/09/23 03:23:27;;;;;;;22.65;8.52;;;12.90;99.90;;;;;;4966185;28;20126;-80
2021/09/23 03:25:54;;;;;;;23.48;9.77;;;12.90;99.90;;;;;;4963639;28;20141;-80
2021/09/23 03:28:21;;;;;;;22.83;8.40;;;12.90;99.90;;;;;;4952721;28;20054;-79
2021/09/23 03:30:48;;;;;;;17.85;7.40;;;12.80;99.90;;;;;;4947175;28;20231;-79
2021/09/23 03:33:15;;;;;;;25.00;8.35;;;12.80;99.90;;;;;;4931086;28;20051;-79
2021/09/23 03:35:42;;;;;;;16.52;8.07;;;12.80;99.90;;;;;;4963994;28;20063;-79
2021/09/23 03:38:09;;;;;;;12.93;7.93;;;12.80;99.90;;;;;;4955909;28;20052;-79
2021/09/23 03:40:36;;;;;;;18.92;10.25;;;12.80;99.90;;;;;;4931724;28;20487;-79
2021/09/23 03:43:03;;;;;;;22.92;7.93;;;12.80;99.90;;;;;;4969192;28;20227;-79
2021/09/23 03:45:30;;;;;;;26.38;9.00;;;12.80;99.90;;;;;;4953464;28;20118;-79
2021/09/23 03:47:57;;;;;;;22.63;8.65;;;12.80;99.90;;;;;;4952796;28;20147;-79
2021/09/23 03:50:25;;;;;;;17.20;8.70;;;12.80;99.90;;;;;;4951086;28;20506;-79
2021/09/23 03:52:52;;;;;;;26.05;10.57;;;12.70;99.90;;;;;;4965338;28;20043;-79
2021/09/23 03:55:19;;;;;;;22.95;10.13;;;12.80;99.90;;;;;;4962429;28;20081;-79
2021/09/23 03:57:46;;;;;;;16.70;8.05;;;12.80;99.90;;;;;;4964372;28;20138;-79
2021/09/23 04:00:15;;;;;;;22.42;9.95;;;12.80;99.90;;;;;;4971619;28;20089;-79
2021/09/23 04:02:49;;;;;;;25.73;8.95;;;12.80;99.90;;;;;;4929138;28;20181;-79
2021/09/23 04:05:18;;;;;;;22.50;9.35;;;12.80;99.90;;;;;;4960780;28;20040;-79
2021/09/23 04:07:46;;;;;;;16.13;8.05;;;12.80;99.90;;;;;;4951947;28;20129;-79
2021/09/23 04:10:13;;;;;;;20.60;8.75;;;12.80;99.90;;;;;;4952372;28;20086;-79
2021/09/23 04:12:41;;;;;;;23.45;9.20;;;12.70;99.90;;;;;;4947583;28;20079;-78
2021/09/23 04:15:08;;;;;;;24.13;8.55;;;12.80;99.90;;;;;;4959325;28;20061;-79
2021/09/23 04:17:35;;;;;;;19.50;8.80;;;12.80;99.90;;;;;;4950795;28;20059;-80
2021/09/23 04:20:04;;;;;;;19.73;7.82;;;12.70;99.90;;;;;;4964679;28;20127;-80
2021/09/23 04:22:31;;;;;;;18.83;10.13;;;12.70;99.90;;;;;;4944898;28;20047;-79
2021/09/23 04:24:59;;;;;;;19.55;8.35;;;12.80;99.90;;;;;;4946635;28;20051;-80
2021/09/23 04:27:26;;;;;;;25.15;9.60;;;12.70;99.90;;;;;;4965027;28;20039;-81
2021/09/23 04:29:54;;;;;;;25.45;9.23;;;12.70;99.90;;;;;;4964360;28;20513;-80
2021/09/23 04:32:21;;;;;;;13.25;8.02;;;12.80;99.90;;;;;;4935932;28;20043;-81
2021/09/23 04:34:50;;;;;;;17.67;9.25;;;12.70;99.90;;;;;;4964290;28;20051;-80
2021/09/23 04:37:17;;;;;;;13.38;6.70;;;12.70;99.90;;;;;;4946949;28;20074;-81
2021/09/23 04:39:48;;;;;;;20.83;7.18;;;12.70;99.90;;;;;;4961717;28;20039;-80
2021/09/23 04:42:15;;;;;;;15.38;7.47;;;12.70;99.90;;;;;;4930262;29;20051;-80
2021/09/23 04:44:43;;;;;;;14.32;6.43;;;12.70;99.90;;;;;;4963364;28;20590;-79
2021/09/23 04:47:10;;;;;;;15.82;8.00;;;12.70;99.90;;;;;;4961933;28;20054;-80
2021/09/23 04:49:40;;;;;;;13.73;9.18;;;12.70;99.90;;;;;;4947659;28;20043;-80
2021/09/23 04:52:07;;;;;;;16.70;7.10;;;12.70;99.90;;;;;;4962644;28;21811;-80
2021/09/23 04:54:36;;;;;;;13.38;7.07;;;12.80;99.90;;;;;;4963223;28;20109;-80
2021/09/23 04:57:03;;;;;;;15.50;6.68;;;12.80;99.90;;;;;;4960234;28;20130;-79
2021/09/23 04:59:35;;;;;;;16.48;7.80;;;12.80;99.90;;;;;;4946831;28;20138;-80
2021/09/23 05:02:02;;;;;;;17.95;8.05;;;12.80;99.90;;;;;;4935472;28;20043;-80
2021/09/23 05:04:30;;;;;;;16.00;8.13;;;12.80;99.90;;;;;;4947925;28;20043;-79
2021/09/23 05:06:58;;;;;;;11.80;6.85;;;12.80;99.90;;;;;;4943172;28;20044;-79
2021/09/23 05:09:25;;;;;;;16.92;7.90;;;12.80;99.90;;;;;;4958491;28;20057;-80
2021/09/23 05:11:52;;;;;;;20.95;8.50;;;12.90;99.90;;;;;;4933041;29;20051;-80
2021/09/23 05:14:19;;;;;;;21.92;7.57;;;12.90;99.90;;;;;;4938379;28;20039;-80
2021/09/23 05:16:46;;;;;;;17.27;8.93;;;12.90;99.90;;;;;;4948641;28;20061;-80
2021/09/23 05:19:13;;;;;;;22.63;7.57;;;12.90;99.90;;;;;;4961654;28;20047;-80
2021/09/23 05:21:41;;;;;;;21.38;6.47;;;12.90;99.90;;;;;;4931783;29;20047;-80
2021/09/23 05:24:12;;;;;;;15.90;7.20;;;13.00;99.90;;;;;;4961858;28;20071;-80
2021/09/23 05:26:39;;;;;;;;;;;13.00;99.90;;;;;;4948187;28;20101;-80
2021/09/23 05:29:06;;;;;;;20.50;6.63;;;13.10;99.90;;;;;;4961089;28;19930;-80
2021/09/23 05:31:35;;;;;;;13.55;6.57;;;13.10;99.90;;;;;;4961064;28;20039;-80
2021/09/23 05:34:04;;;;;;;14.48;5.75;;;13.10;99.90;;;;;;4954369;28;20058;-80
2021/09/23 05:36:31;;;;;;;13.57;7.50;;;13.10;99.90;;;;;;4947419;28;20056;-80
2021/09/23 05:39:03;;;;;;;14.73;6.88;;;13.10;99.90;;;;;;4945763;28;20046;-80
2021/09/23 05:41:31;;;;;;;12.90;6.10;;;13.20;99.90;;;;;;4948695;28;20127;-79
2021/09/23 05:44:00;;;;;;;11.35;6.25;;;13.20;99.90;;;;;;4946263;28;20114;-80
2021/09/23 05:46:28;;;;;;;12.98;5.03;;;13.20;99.90;;;;;;4947101;28;20134;-80
2021/09/23 05:48:55;;;;;;;15.18;6.50;;;13.30;99.90;;;;;;4959994;28;20390;-80
2021/09/23 05:51:22;;;;;;;11.75;6.00;;;13.30;99.90;;;;;;4963714;28;20079;-81
2021/09/23 05:53:49;;;;;;;13.32;6.72;;;13.40;99.90;;;;;;4948754;28;20081;-80
2021/09/23 05:56:16;;;;;;;15.95;6.88;;;13.40;99.90;;;;;;4963330;28;20125;-81
2021/09/23 05:58:43;;;;;;;16.45;9.18;;;13.40;99.90;;;;;;4951725;28;20491;-80
2021/09/23 06:01:12;;;;;;;18.55;6.45;;;13.40;99.90;;;;;;4946800;28;20425;-80
2021/09/23 06:03:48;;;;;;;13.32;5.95;;;13.50;99.90;;;;;;4944279;28;20050;-81
2021/09/23 06:06:17;;;;;;;15.95;7.45;;;13.50;99.90;;;;;;4959094;28;20044;-79
2021/09/23 06:08:44;;;;;;;18.10;8.55;;;13.50;99.90;;;;;;4962439;28;20043;-79
2021/09/23 06:11:12;;;;;;;11.77;6.40;;;13.50;99.90;;;;;;4948270;28;20045;-79
2021/09/23 06:13:41;;;;;;;15.43;6.32;;;13.50;99.90;;;;;;4950140;28;20039;-80
2021/09/23 06:16:08;;;;;;;21.80;7.25;;;13.50;99.90;;;;;;4970437;28;20055;-80
2021/09/23 06:18:36;;;;;;;12.05;7.20;;;13.50;99.90;;;;;;4971099;28;20154;-80
2021/09/23 06:21:07;;;;;;;10.07;6.10;;;13.50;99.90;;;;;;4971760;28;20046;-80
2021/09/23 06:23:35;;;;;;;12.77;6.18;;;13.50;99.90;;;;;;4950537;28;20043;-80
2021/09/23 06:26:03;;;;;;;9.45;5.72;;;13.60;99.90;;;;;;4971494;28;21383;-80
2021/09/23 06:28:31;;;;;;;9.15;4.93;;;13.60;99.90;;;;;;4967463;28;20066;-79
2021/09/23 06:30:59;;;;;;;7.28;5.72;;;13.60;99.90;;;;;;4957527;28;20958;-80
2021/09/23 06:33:26;;;;;;;18.23;5.90;;;13.50;99.90;;;;;;4949686;28;20047;-79
2021/09/23 06:35:53;;;;;;;9.27;5.38;;;13.60;99.90;;;;;;4956134;28;20035;-80
2021/09/23 06:38:21;;;;;;;8.52;5.80;;;13.50;99.90;;;;;;4970909;28;20480;-79
2021/09/23 06:40:48;;;;;;;11.73;5.47;;;13.50;99.90;;;;;;4966306;28;20130;-80
2021/09/23 06:43:15;;;;;;;9.13;5.32;;;13.50;99.90;;;;;;4958451;28;20126;-80
2021/09/23 06:45:42;;;;;;;14.68;4.45;;;13.50;99.90;;;;;;4950769;28;20043;-79
2021/09/23 06:48:09;;;;;;;10.32;4.82;;;13.60;99.90;;;;;;4965396;28;20749;-80
2021/09/23 06:50:36;;;;;;;7.03;3.47;;;13.60;99.90;;;;;;4956467;28;20058;-80
2021/09/23 06:53:03;;;;;;;7.85;3.80;;;13.50;99.90;;;;;;4964262;28;20079;-81
2021/09/23 06:55:30;;;;;;;9.48;4.30;;;13.50;99.90;;;;;;4967614;28;20043;-80
2021/09/23 06:57:58;;;;;;;4.45;3.17;;;13.50;99.90;;;;;;4965383;28;20047;-80
2021/09/23 07:00:44;;;;;;;3.17;2.75;;;13.50;99.90;;;;;;4951989;29;20138;-80
2021/09/23 07:03:30;;;;;;;6.22;1.95;;;13.50;99.90;;;;;;4951741;28;20054;-81
2021/09/23 07:06:16;;;;;;;7.28;4.22;;;13.50;99.90;;;;;;4949988;28;20047;-82
2021/09/23 07:08:43;;;;;;;5.78;2.90;;;13.50;99.90;;;;;;4931891;29;20055;-81
2021/09/23 07:11:15;;;;;;;12.00;3.88;;;13.50;99.90;;;;;;4926553;28;20043;-80
2021/09/23 07:13:44;;;;;;;6.78;2.90;;;13.50;99.90;;;;;;4952254;28;20079;-81
2021/09/23 07:16:12;;;;;;;6.88;3.78;;;13.50;99.90;;;;;;4954907;28;20098;-80
2021/09/23 07:18:41;;;;;;;10.20;3.73;;;13.50;99.90;;;;;;4967455;28;20078;-81
2021/09/23 07:21:08;;;;;;;7.22;3.45;;;13.60;99.90;;;;;;4963043;28;20043;-80
2021/09/23 07:23:36;;;;;;;8.55;3.97;;;13.60;99.90;;;;;;4949399;28;20102;-81
2021/09/23 07:26:03;;;;;;;7.57;3.67;;;13.60;99.90;;;;;;4965712;28;20047;-81
2021/09/23 07:28:30;;;;;;;6.60;4.25;;;13.60;99.90;;;;;;4948193;28;20451;-81
2021/09/23 07:30:58;;;;;;;8.48;4.25;;;13.60;99.90;;;;;;4961921;28;20109;-81
2021/09/23 07:33:25;;;;;;;5.43;3.40;;;13.60;99.90;;;;;;4949306;28;20043;-81
2021/09/23 07:35:53;;;;;;;10.93;4.10;;;13.60;99.90;;;;;;4948623;28;20471;-81
2021/09/23 07:38:20;;;;;;;10.82;4.90;;;13.50;99.90;;;;;;4964432;28;20126;-81
2021/09/23 07:40:48;;;;;;;5.15;4.60;;;13.60;99.90;;;;;;4965603;28;20049;-81
2021/09/23 07:43:15;;;;;;;11.00;5.00;;;13.60;99.90;;;;;;4929690;29;20117;-82
2021/09/23 07:45:42;;;;;;;7.85;4.35;;;13.60;99.90;;;;;;4950112;28;20043;-81
2021/09/23 07:48:09;;;;;;;10.80;4.30;;;13.70;99.90;;;;;;4957645;28;20082;-80
2021/09/23 07:50:36;;;;;;;3.47;2.85;;;13.70;99.90;;;;;;4973685;28;20083;-80
2021/09/23 07:53:03;;;;;;;13.98;5.28;;;13.80;99.90;;;;;;4964403;28;20163;-81
2021/09/23 07:55:30;;;;;;;6.20;3.75;;;13.80;99.90;;;;;;4948068;28;20121;-81
2021/09/23 07:57:58;;;;;;;7.40;3.58;;;13.90;99.90;;;;;;4950274;28;20061;-81
2021/09/23 08:00:25;;;;;;;4.70;3.65;;;13.90;99.90;;;;;;4947148;28;20040;-80
2021/09/23 08:02:52;;;;;;;9.50;4.63;;;13.90;99.90;;;;;;4961542;28;20437;-81
2021/09/23 08:05:20;;;;;;;8.52;4.40;;;13.80;99.90;;;;;;4961047;28;20047;-80
2021/09/23 08:07:48;;;;;;;8.38;5.50;;;13.70;99.90;;;;;;4963950;28;20049;-81
2021/09/23 08:10:16;;;;;;;5.72;4.75;;;13.70;99.90;;;;;;4950087;28;20598;-82
2021/09/23 08:12:45;;;;;;;8.20;4.50;;;13.60;99.90;;;;;;4959301;28;20040;-81
2021/09/23 08:15:15;;;;;;;9.55;5.93;;;13.60;99.90;;;;;;4948116;28;20618;-79
2021/09/23 08:18:00;;;;;;;7.10;4.03;;;13.60;99.90;;;;;;4961856;28;20101;-79
2021/09/23 08:21:03;;;;;;;7.78;5.22;;;13.60;99.90;;;;;;4930758;28;20114;-85
2021/09/23 08:23:30;;;;;;;8.82;4.80;;;13.50;99.90;;;;;;4965104;28;20074;-82
2021/09/23 08:26:18;;;;;;;5.28;4.55;;;13.50;99.90;;;;;;4948219;28;20122;-84
2021/09/23 08:28:45;;;;;;;12.05;5.18;;;13.50;99.90;;;;;;4963866;28;20035;-86
2021/09/23 08:31:15;;;;;;;11.80;6.45;;;13.50;99.90;;;;;;4945928;28;20039;-85
2021/09/23 08:33:44;;;;;;;9.75;5.13;;;13.50;99.90;;;;;;4962880;28;20517;-82
2021/09/23 08:36:11;;;;;;;10.10;6.10;;;13.50;99.90;;;;;;4944596;28;20138;-82
2021/09/23 08:38:38;;;;;;;8.43;5.93;;;13.50;99.90;;;;;;4945455;28;20616;-83
2021/09/23 08:41:06;;;;;;;6.53;5.05;;;13.50;99.90;;;;;;4944261;28;20043;-82
2021/09/23 08:43:34;;;;;;;10.40;5.90;;;13.50;99.90;;;;;;4954012;28;20035;-82
2021/09/23 08:46:04;;;;;;;6.53;5.32;;;13.50;99.90;;;;;;4946621;28;20059;-82
2021/09/23 08:48:34;;;;;;;11.55;6.00;;;13.50;99.90;;;;;;4961048;28;20138;-83
2021/09/23 08:51:02;;;;;;;12.25;6.70;;;13.50;99.90;;;;;;4941952;28;20055;-83
2021/09/23 08:53:32;;;;;;;9.27;6.28;;;13.60;99.90;;;;;;4958627;28;20114;-82
2021/09/23 08:56:00;;;;;;;9.35;5.63;;;13.60;99.90;;;;;;4945292;28;20047;-84
2021/09/23 08:58:33;;;;;;;9.57;6.72;;;13.60;99.90;;;;;;4945574;28;20043;-83
2021/09/23 09:01:09;;;;;;;10.38;6.00;;;13.60;99.90;;;;;;4944722;28;20054;-82
2021/09/23 09:04:03;;;;;;;11.13;5.97;;;13.60;99.90;;;;;;4945194;28;20683;-83
2021/09/23 09:06:56;;;;;;;6.03;5.43;;;13.60;99.90;;;;;;4938448;28;20075;-82
2021/09/23 09:09:45;;;;;;;7.65;5.97;;;13.60;99.90;;;;;;4945773;28;20054;-83
2021/09/23 09:12:14;;;;;;;9.82;6.38;;;13.60;99.90;;;;;;4961841;28;20630;-83
2021/09/23 09:14:43;;;;;;;6.95;5.38;;;13.60;99.90;;;;;;4949373;28;20703;-83
2021/09/23 09:17:11;;;;;;;11.07;6.55;;;13.60;99.90;;;;;;4943833;28;20066;-83
2021/09/23 09:19:50;;;;;;;8.70;5.68;;;13.60;99.90;;;;;;4960232;28;20047;-83
2021/09/23 09:22:21;;;;;;;8.23;5.88;;;13.60;99.90;;;;;;4945942;28;20075;-83
2021/09/23 09:25:12;;;;;;;9.82;6.55;;;13.60;99.90;;;;;;4943221;28;20527;-83
2021/09/23 09:27:52;;;;;;;15.35;6.38;;;13.60;99.90;;;;;;4946278;28;20046;-83
2021/09/23 09:30:22;;;;;;;9.55;6.53;;;13.60;99.90;;;;;;4947005;28;20094;-84
2021/09/23 09:32:52;;;;;;;15.50;6.05;;;13.70;99.90;;;;;;4942191;28;20102;-83
2021/09/23 09:35:25;;;;;;;11.00;6.57;;;13.70;99.90;;;;;;4946164;28;20043;-84
2021/09/23 09:37:57;;;;;;;19.05;7.50;;;13.70;99.90;;;;;;4946892;28;20130;-85
2021/09/23 09:40:27;;;;;;;7.88;5.80;;;13.70;99.90;;;;;;4962897;28;20043;-85
2021/09/23 09:42:55;;;;;;;9.68;5.78;;;13.70;99.90;;;;;;4943101;28;20055;-85
2021/09/23 09:45:26;;;;;;;;;;;13.70;99.90;;;;;;4958224;28;20113;-85
2021/09/23 09:47:56;;;;;;;7.70;6.38;;;13.70;99.90;;;;;;4942906;28;20503;-85
2021/09/23 09:50:31;;;;;;;13.57;6.40;;;13.70;99.90;;;;;;4952319;28;20047;-85
2021/09/23 09:53:07;;;;;;;8.52;6.28;;;13.60;99.90;;;;;;4958184;28;20697;-85
2021/09/23 09:55:39;;;;;;;10.10;7.85;;;13.50;99.90;;;;;;4947869;28;20060;-85
2021/09/23 09:58:11;;;;;;;10.73;6.68;;;13.60;99.90;;;;;;4946794;28;20106;-86
2021/09/23 10:00:49;;;;;;;11.03;6.40;;;13.50;99.90;;;;;;4960977;28;20493;-86
2021/09/23 10:03:21;;;;;;;8.07;5.32;;;13.50;99.90;;;;;;4936303;28;20049;-86
2021/09/23 10:05:50;;;;;;;9.70;7.78;;;13.50;99.90;;;;;;4942175;28;20071;-85
2021/09/23 10:08:22;;;;;;;10.32;8.07;;;13.60;99.90;;;;;;4946363;28;20465;-86
2021/09/23 10:10:55;;;;;;;9.82;7.40;;;13.60;99.90;;;;;;4955618;28;20525;-84
2021/09/23 10:13:24;;;;;;;10.05;5.97;;;13.60;99.90;;;;;;4955750;28;20047;-85
2021/09/23 10:15:52;;;;;;;8.52;7.07;;;13.60;99.90;;;;;;4963875;28;20457;-85
2021/09/23 10:19:06;;;;;;;10.20;7.13;;;13.70;99.90;;;;;;4945686;28;20043;-85
2021/09/23 10:21:35;;;;;;;10.50;6.80;;;13.70;99.90;;;;;;4945211;28;20047;-86
2021/09/23 10:24:04;;;;;;;14.68;8.55;;;13.70;99.90;;;;;;4947682;28;20055;-84
2021/09/23 10:26:33;;;;;;;13.90;7.85;;;13.70;99.90;;;;;;4956285;28;20842;-86
2021/09/23 10:29:03;;;;;;;13.32;7.93;;;13.70;99.90;;;;;;4945664;28;20675;-85
2021/09/23 10:31:34;;;;;;;13.23;8.65;;;13.80;99.90;;;;;;4961267;28;20083;-86
2021/09/23 10:34:09;;;;;;;10.10;6.80;;;13.70;99.90;;;;;;4949726;28;20694;-84
2021/09/23 10:36:40;;;;;;;7.75;6.28;;;13.70;99.90;;;;;;4962008;28;20633;-83
2021/09/23 10:39:10;;;;;;;11.18;7.22;;;13.70;99.90;;;;;;4948750;28;20485;-84
2021/09/23 10:41:39;;;;;;;15.20;8.60;;;13.80;99.90;;;;;;4946304;28;20969;-84
2021/09/23 10:44:07;;;;;;;9.75;6.78;;;13.80;99.90;;;;;;4931165;29;20043;-85
2021/09/23 10:46:36;;;;;;;13.15;6.97;;;13.80;99.90;;;;;;4960694;28;20122;-84
2021/09/23 10:49:06;;;;;;;9.98;6.00;;;13.80;99.90;;;;;;4936164;28;20874;-83
2021/09/23 10:51:36;;;;;;;;;;;13.80;99.90;;;;;;4934387;28;20401;-85
2021/09/23 10:54:09;;;;;;;8.93;6.28;;;13.90;99.90;;;;;;4962157;28;20627;-85
2021/09/23 10:56:40;;;;;;;10.70;7.03;;;14.00;99.90;;;;;;4966882;28;20055;-86
2021/09/23 10:59:09;;;;;;;12.30;7.18;;;14.00;99.90;;;;;;4958120;28;20051;-86
2021/09/23 11:01:39;;;;;;;13.30;6.72;;;14.00;99.90;;;;;;4967319;28;20086;-88
2021/09/23 11:04:27;;;;;;;13.15;6.35;;;14.00;99.90;;;;;;4959158;28;20121;-85
2021/09/23 11:06:58;;;;;;;9.93;7.45;;;14.00;99.90;;;;;;4961670;28;20047;-85
2021/09/23 11:09:26;;;;;;;8.93;6.85;;;14.00;99.90;;;;;;4966369;28;20114;-85
2021/09/23 11:12:05;;;;;;;12.77;6.93;;;14.00;99.90;;;;;;4932226;29;20389;-84
2021/09/23 11:14:38;;;;;;;7.95;6.40;;;13.90;99.90;;;;;;4963140;28;20414;-85
2021/09/23 11:17:09;;;;;;;12.38;7.25;;;13.90;99.90;;;;;;4931826;28;20039;-85
2021/09/23 11:19:37;;;;;;;5.75;5.18;;;13.80;99.90;;;;;;4950147;28;20039;-85
2021/09/23 11:22:07;;;;;;;8.93;5.78;;;13.70;99.90;;;;;;4962106;28;20078;-84
2021/09/23 11:24:35;;;;;;;8.15;6.20;;;13.70;99.90;;;;;;4966637;28;20055;-83
2021/09/23 11:27:04;;;;;;;8.68;6.53;;;13.70;99.90;;;;;;4928156;28;20044;-84
2021/09/23 11:29:36;;;;;;;8.50;6.53;;;13.60;99.90;;;;;;4963860;28;20058;-83
2021/09/23 11:32:03;;;;;;;16.63;7.78;;;13.60;99.90;;;;;;4967877;28;20039;-84
2021/09/23 11:34:37;;;;;;;9.75;6.90;;;13.60;99.90;;;;;;4962737;28;20122;-82
2021/09/23 11:37:08;;;;;;;7.70;6.25;;;13.60;99.90;;;;;;4949269;28;20079;-82
2021/09/23 11:39:50;;;;;;;8.57;7.03;;;13.60;99.90;;;;;;4953618;28;20085;-87
2021/09/23 11:42:19;;;;;;;12.65;7.80;;;13.60;99.90;;;;;;4966052;28;20514;-89
2021/09/23 11:44:50;;;;;;;7.75;6.47;;;13.50;99.90;;;;;;4960928;28;20036;-86
2021/09/23 11:47:24;;;;;;;10.43;6.43;;;13.60;99.90;;;;;;4949437;28;20130;-86
2021/09/23 11:49:55;;;;;;;10.48;7.50;;;13.60;99.90;;;;;;4970647;28;20043;-86
2021/09/23 11:52:33;;;;;;;7.78;7.00;;;13.60;99.90;;;;;;4950326;28;20047;-85
2021/09/23 11:55:16;;;;;;;14.50;7.68;;;13.60;99.90;;;;;;4968360;28;20050;-87
2021/09/23 11:57:43;;;;;;;12.93;7.55;;;13.50;99.90;;;;;;4965281;28;20063;-86
2021/09/23 12:00:11;;;;;;;9.73;6.63;;;13.60;99.90;;;;;;4963773;28;20058;-85
2021/09/23 12:03:02;;;;;;;11.55;8.05;;;13.50;99.90;;;;;;4961693;28;20059;-86
2021/09/23 12:05:31;;;;;;;11.10;8.07;;;13.50;99.90;;;;;;4941769;28;20511;-85
2021/09/23 12:08:22;;;;;;;12.45;8.07;;;13.50;99.90;;;;;;4935002;29;20047;-86
2021/09/23 12:10:50;;;;;;;10.38;7.80;;;13.50;99.90;;;;;;4963667;28;20050;-85
2021/09/23 12:15:58;;;;;;;10.82;7.63;;;13.50;99.90;;;;;;4963556;28;20867;-86
2021/09/23 12:18:28;;;;;;;12.20;7.55;;;13.60;99.90;;;;;;4932476;28;20264;-85
2021/09/23 12:21:03;;;;;;;13.68;8.60;;;13.60;99.90;;;;;;4947324;28;20051;-84
2021/09/23 12:23:45;;;;;;;10.85;7.78;;;13.60;99.90;;;;;;4965645;28;20046;-86
2021/09/23 12:26:25;;;;;;;11.57;8.38;;;13.60;99.90;;;;;;4955346;28;20440;-86
2021/09/23 12:29:11;;;;;;;13.82;9.18;;;13.70;99.90;;;;;;4968610;28;20039;-85
2021/09/23 12:31:45;;;;;;;12.65;8.68;;;13.70;99.90;;;;;;4934329;28;20516;-86
2021/09/23 12:34:21;;;;;;;11.90;8.55;;;13.70;99.90;;;;;;4942187;28;20043;-87
2021/09/23 12:37:00;;;;;;;13.98;7.68;;;13.70;99.90;;;;;;4932539;28;20520;-85
2021/09/23 12:39:43;;;;;;;11.48;8.82;;;13.70;99.90;;;;;;4961925;28;20701;-87
2021/09/23 12:42:17;;;;;;;12.50;8.85;;;13.80;99.90;;;;;;4967878;28;20039;-86
2021/09/23 12:45:01;;;;;;;15.23;8.10;;;13.80;99.90;;;;;;4946006;28;20046;-86
2021/09/23 12:47:41;;;;;;;13.50;9.18;;;13.80;99.90;;;;;;4941261;28;20045;-86
2021/09/23 12:50:11;;;;;;;11.80;8.10;;;13.80;99.90;;;;;;4949138;28;20040;-87
2021/09/23 12:52:41;;;;;;;22.65;8.70;;;13.80;99.90;;;;;;4964491;28;20039;-87
2021/09/23 12:55:24;;;;;;;11.63;7.53;;;13.80;99.90;;;;;;4946899;28;20043;-87
2021/09/23 12:57:57;;;;;;;16.00;7.95;;;13.70;99.90;;;;;;4948452;28;20078;-88
2021/09/23 13:00:30;;;;;;;17.17;7.85;;;13.70;99.90;;;;;;4946225;28;20047;-85